Airfield :
LOGIN :

Register | Disclaimer

   EN    FR    IT 

 










Legend :    VFR   Marginal VFR   IFR   Intensive IFR   Very Intensive IFR
Visi :
Ceiling :
>= 8 km
>= 3000ft
5 to 8 km
1000 to 3000 ft
1500m to 5 km
500 to 1000 ft
800 to 1500m
200 to 500 ft
< 800m
< 200 ft
Symbols :   Thunderstorms  Fog  Heavy snow  Heavy precipitations  Wind > 20 kt
SIGMETs :     Misc.  Thunderstorms  Icing  Turbulence  Mountain Waves  Volcanic Ashes







- Airport Elevation : 3368 ft


LSGC - Les Eplatures

CURRENT METAR :
  • 201520Z 06005KT 030V120 9999 -RA BKN024 //////TCU 13/09 Q1017

EXPIRED METARs :
  • 201450Z 07007KT 040V110 9999 FEW023 SCT032TCU 14/09 Q1017
  • 201420Z VRB02KT 9999 FEW023 SCT045CB 14/10 Q1017
  • 201350Z VRB03KT 9999 FEW022 SCT045CB 13/09 Q1017
  • 201320Z 04005KT 350V090 9999 VCTS FEW020CB BKN045 13/08 Q1017
  • 201250Z 12003KT 040V170 9999 -RA SCT024TCU SCT026 13/09 Q1018

TAF TAF LSGC
Valid from the 20 at 15:00 until the 21 at 00:00 UTC


201425Z 2015/2024 VRB03KT 9999 FEW020 FEW030TCU BKN045
PROB40
TEMPO 2015/2021 VRB15G25KT 4000 TSRA FEW010 SCT030CB BKN040
No reported NOTAMs for that airfield.
1 SIGMET reported for the Switzerland FIR (LSAS) :
 
SIGMET 1  cancelation
LSAS SIGMET 2 VALID 201502/201530 LSZH
LSAS SWITZERLAND FIR/UIR CNL SIGMET 1 201332/201530=



MET'MAP, your aeronautical weather chart ! - Copyright ORBIFLY December 2007 - Disclaimer

ORBIFLY MET'MAP TEAM :

Programming & Development : Alexandra Zaïnal
Concept & Development : Baudouin d'Aumeries
Co-Development & Prog : Marc-Olivier Méhu
Technical & hardware support : Manuel Goepfert

Contact : metmap@orbifly.com




SOURCES & CREDITS :

   NOAA